createdAt,value
2022-12-24T00:02:15.593Z,76852.94
2022-12-24T00:04:42.108Z,76872.81
2022-12-24T00:07:08.578Z,76848.97
2022-12-24T00:09:34.964Z,76841.03
2022-12-24T00:12:01.341Z,76841.03
2022-12-24T00:14:27.762Z,76839.03
2022-12-24T00:16:54.232Z,76847.00
2022-12-24T00:19:20.673Z,76823.13
2022-12-24T00:21:47.050Z,76823.13
2022-12-24T00:24:13.579Z,76839.03
2022-12-24T00:26:40.055Z,76843.00
2022-12-24T00:29:06.637Z,76841.03
2022-12-24T00:31:33.096Z,76854.94
2022-12-24T00:33:59.548Z,76852.94
2022-12-24T00:36:25.942Z,76856.94
2022-12-24T00:38:52.318Z,76854.94
2022-12-24T00:41:25.308Z,76847.00
2022-12-24T00:43:54.006Z,76854.94
2022-12-24T00:46:20.838Z,76858.91
2022-12-24T00:48:47.864Z,76847.00
2022-12-24T00:51:14.635Z,76843.00
2022-12-24T00:53:41.157Z,76847.00
2022-12-24T00:56:08.293Z,76843.00
2022-12-24T00:58:34.785Z,76850.97
2022-12-24T01:01:01.372Z,76858.91
2022-12-24T01:03:37.180Z,76847.00
2022-12-24T01:06:09.737Z,76872.81
2022-12-24T01:08:36.642Z,76870.84
2022-12-24T01:11:05.829Z,76858.91
2022-12-24T01:13:32.992Z,76860.91
2022-12-24T01:15:59.437Z,76856.94
2022-12-24T01:18:25.884Z,76868.84
2022-12-24T01:21:03.396Z,76868.84
2022-12-24T01:23:30.616Z,76870.84
2022-12-24T01:26:02.023Z,76886.72
2022-12-24T01:28:28.810Z,76888.72
2022-12-24T01:30:55.306Z,76880.78
2022-12-24T01:33:21.782Z,76880.78
2022-12-24T01:35:48.436Z,76886.72
2022-12-24T01:38:15.267Z,76884.75
2022-12-24T01:41:01.404Z,76878.78
2022-12-24T01:43:30.287Z,76886.72
2022-12-24T01:46:04.591Z,76888.72
2022-12-24T01:48:46.352Z,76886.72
2022-12-24T01:51:36.821Z,76910.59
2022-12-24T01:54:18.064Z,76902.63
2022-12-24T01:56:48.909Z,76900.66
2022-12-24T01:59:18.585Z,76908.59
2022-12-24T02:01:47.148Z,76908.59
2022-12-24T02:04:24.997Z,76902.63
2022-12-24T02:06:51.419Z,76894.69
2022-12-24T02:09:18.103Z,76912.56
2022-12-24T02:11:44.912Z,76898.66
2022-12-24T02:14:13.244Z,76902.63
2022-12-24T02:17:00.444Z,76926.47
2022-12-24T02:19:47.385Z,76912.56
2022-12-24T02:22:51.589Z,76944.38
2022-12-24T02:25:43.117Z,76930.47
2022-12-24T02:28:33.910Z,76934.44
2022-12-24T02:31:06.285Z,76948.34
2022-12-24T02:33:42.790Z,76958.28
2022-12-24T02:36:40.269Z,76968.22
2022-12-24T02:39:19.204Z,76964.25
2022-12-24T02:42:08.628Z,76964.25
2022-12-24T02:44:41.991Z,76944.38
2022-12-24T02:47:10.676Z,76950.31
2022-12-24T02:49:37.976Z,76928.47
2022-12-24T02:52:04.650Z,76938.41
2022-12-24T02:54:31.381Z,76956.28
2022-12-24T02:57:37.297Z,76938.41
2022-12-24T03:00:12.313Z,76942.38
2022-12-24T03:03:03.230Z,76954.31
2022-12-24T03:05:34.019Z,76960.25
2022-12-24T03:08:51.156Z,76970.19
2022-12-24T03:11:18.458Z,76982.13
2022-12-24T03:13:46.909Z,76978.16
2022-12-24T03:16:17.534Z,76948.34
2022-12-24T03:18:47.810Z,76980.13
2022-12-24T03:21:20.845Z,76972.19
2022-12-24T03:23:47.891Z,76980.13
2022-12-24T03:26:18.121Z,76970.19
2022-12-24T03:28:45.567Z,76974.19
2022-12-24T03:31:12.979Z,76972.19
2022-12-24T03:33:39.545Z,76982.13
2022-12-24T03:36:06.714Z,76994.06
2022-12-24T03:38:33.722Z,77004.00
2022-12-24T03:41:00.373Z,76986.09
2022-12-24T03:43:26.769Z,76998.03
2022-12-24T03:45:53.202Z,76972.19
2022-12-24T03:48:19.673Z,76988.09
2022-12-24T03:50:46.099Z,76982.13
2022-12-24T03:53:12.490Z,76980.13
2022-12-24T03:55:39.542Z,76998.03
2022-12-24T03:58:06.186Z,77015.91
2022-12-24T04:00:32.596Z,77015.91
2022-12-24T04:02:59.015Z,77015.91
2022-12-24T04:05:25.426Z,77013.94
2022-12-24T04:07:51.828Z,77027.84
2022-12-24T04:10:18.309Z,77025.84
2022-12-24T04:12:44.740Z,77025.84
2022-12-24T04:15:11.568Z,77041.75
2022-12-24T04:17:37.944Z,77035.78
2022-12-24T04:20:04.840Z,77043.75
2022-12-24T04:22:32.503Z,77057.66
2022-12-24T04:24:58.906Z,77035.78
2022-12-24T04:27:30.091Z,77059.63
2022-12-24T04:29:57.328Z,77065.59
2022-12-24T04:32:26.315Z,77073.56
2022-12-24T04:34:52.784Z,77067.59
2022-12-24T04:37:19.153Z,77067.59
2022-12-24T04:39:45.518Z,77059.63
2022-12-24T04:42:11.905Z,77047.72
2022-12-24T04:44:38.287Z,77035.78
2022-12-24T04:47:04.764Z,77055.66
2022-12-24T04:49:31.161Z,77049.69
2022-12-24T04:51:57.524Z,77071.56
2022-12-24T04:54:23.881Z,77057.66
2022-12-24T04:56:50.245Z,77051.69
2022-12-24T04:59:16.652Z,77065.59
2022-12-24T05:01:43.145Z,77079.50
2022-12-24T05:04:11.132Z,77071.56
2022-12-24T05:06:37.655Z,77071.56
2022-12-24T05:09:04.080Z,77071.56
2022-12-24T05:11:31.270Z,77095.41
2022-12-24T05:13:57.638Z,77099.38
2022-12-24T05:16:25.129Z,77109.31
2022-12-24T05:18:52.683Z,77081.50
2022-12-24T05:21:23.767Z,77067.59
2022-12-24T05:24:29.117Z,77059.63
2022-12-24T05:26:58.666Z,77065.59
2022-12-24T05:29:25.174Z,77089.44
2022-12-24T05:31:51.553Z,77051.69
2022-12-24T05:34:18.003Z,77067.59
2022-12-24T05:36:45.363Z,77083.50
2022-12-24T05:39:17.158Z,77103.38
2022-12-24T05:41:44.239Z,77101.38
2022-12-24T05:44:10.657Z,77079.50
2022-12-24T05:46:37.139Z,77085.47
2022-12-24T05:49:03.732Z,77083.50
2022-12-24T05:51:30.139Z,77083.50
2022-12-24T05:53:56.648Z,77085.47
2022-12-24T05:56:24.617Z,77101.38
2022-12-24T05:58:52.121Z,77107.34
2022-12-24T06:01:18.771Z,77113.31
2022-12-24T06:03:45.249Z,77127.22
2022-12-24T06:06:14.664Z,77155.03
2022-12-24T06:08:42.425Z,77184.84
2022-12-24T06:11:13.076Z,77192.81
2022-12-24T06:13:40.763Z,77180.88
2022-12-24T06:16:09.188Z,77204.72
2022-12-24T06:18:36.435Z,77208.69
2022-12-24T06:21:03.886Z,77184.84
2022-12-24T06:23:32.747Z,77210.69
2022-12-24T06:26:03.205Z,77188.81
2022-12-24T06:28:31.838Z,77200.75
2022-12-24T06:31:02.656Z,77204.72
2022-12-24T06:33:31.323Z,77176.91
2022-12-24T06:35:57.790Z,77178.88
2022-12-24T06:38:24.186Z,77186.84
2022-12-24T06:40:50.584Z,77202.75
2022-12-24T06:43:17.337Z,77198.75
2022-12-24T06:45:47.799Z,77206.72
2022-12-24T06:48:15.344Z,77198.75
2022-12-24T06:50:42.368Z,77188.81
2022-12-24T06:53:09.576Z,77164.97
2022-12-24T06:55:36.032Z,77192.81
2022-12-24T06:58:03.333Z,77206.72
2022-12-24T07:00:29.879Z,77226.59
2022-12-24T07:02:56.438Z,77200.75
2022-12-24T07:05:23.038Z,77200.75
2022-12-24T07:07:49.471Z,77232.56
2022-12-24T07:10:17.473Z,77224.59
2022-12-24T07:12:44.231Z,77230.56
2022-12-24T07:15:11.830Z,77228.56
2022-12-24T07:17:38.536Z,77222.63
2022-12-24T07:20:06.228Z,77208.69
2022-12-24T07:22:32.790Z,77202.75
2022-12-24T07:24:59.418Z,77222.63
2022-12-24T07:27:25.837Z,77190.81
2022-12-24T07:29:52.296Z,77190.81
2022-12-24T07:32:20.432Z,77208.69
2022-12-24T07:34:46.836Z,77240.50
2022-12-24T07:37:13.195Z,77246.47
2022-12-24T07:39:39.556Z,77260.38
2022-12-24T07:42:07.921Z,77256.41
2022-12-24T07:44:34.631Z,77260.38
2022-12-24T07:47:01.104Z,77274.28
2022-12-24T07:49:27.536Z,77278.25
2022-12-24T07:51:54.283Z,77252.44
2022-12-24T07:54:20.888Z,77272.31
2022-12-24T07:56:47.252Z,77266.34
2022-12-24T07:59:14.470Z,77270.31
2022-12-24T08:01:41.597Z,77258.38
2022-12-24T08:04:08.311Z,77254.41
2022-12-24T08:06:34.790Z,77284.22
2022-12-24T08:09:01.188Z,77278.25
2022-12-24T08:11:27.865Z,77262.38
2022-12-24T08:13:54.516Z,77244.47
2022-12-24T08:16:20.990Z,77250.44
2022-12-24T08:18:54.239Z,77262.38
2022-12-24T08:21:20.830Z,77270.31
2022-12-24T08:23:47.487Z,77242.50
2022-12-24T08:26:14.045Z,77220.63
2022-12-24T08:28:40.737Z,77200.75
2022-12-24T08:31:07.250Z,77226.59
2022-12-24T08:33:33.714Z,77202.75
2022-12-24T08:36:02.036Z,77220.63
2022-12-24T08:38:28.850Z,77190.81
2022-12-24T08:40:55.530Z,77210.69
2022-12-24T08:43:22.716Z,77234.53
2022-12-24T08:45:50.032Z,77210.69
2022-12-24T08:48:16.677Z,77200.75
2022-12-24T08:50:43.370Z,77198.75
2022-12-24T08:53:10.614Z,77178.88
2022-12-24T08:55:37.989Z,77166.97
2022-12-24T08:58:04.389Z,77180.88
2022-12-24T09:00:31.199Z,77149.06
2022-12-24T09:02:57.906Z,77166.97
2022-12-24T09:05:25.884Z,77157.03
2022-12-24T09:07:52.296Z,77196.78
2022-12-24T09:10:19.564Z,77208.69
2022-12-24T09:12:46.289Z,77194.78
2022-12-24T09:15:14.102Z,77174.91
2022-12-24T09:17:40.694Z,77159.00
2022-12-24T09:20:07.781Z,77155.03
2022-12-24T09:22:37.091Z,77184.84
2022-12-24T09:25:04.676Z,77192.81
2022-12-24T09:27:31.649Z,77168.94
2022-12-24T09:29:58.046Z,77159.00
2022-12-24T09:32:25.605Z,77170.94
2022-12-24T09:34:52.008Z,77164.97
2022-12-24T09:37:18.470Z,77139.13
2022-12-24T09:39:44.874Z,77135.16
2022-12-24T09:42:42.734Z,77163.00
2022-12-24T09:45:24.415Z,77145.09
2022-12-24T09:47:55.443Z,77131.19
2022-12-24T09:50:26.998Z,77153.06
2022-12-24T09:52:54.285Z,77153.06
2022-12-24T09:55:24.345Z,77139.13
2022-12-24T09:57:53.007Z,77153.06
2022-12-24T10:00:26.893Z,77159.00
2022-12-24T10:02:53.434Z,77141.13
2022-12-24T10:05:33.387Z,77137.16
2022-12-24T10:08:32.999Z,77153.06
2022-12-24T10:11:17.380Z,77166.97
2022-12-24T10:13:54.380Z,77153.06
2022-12-24T10:16:29.833Z,77159.00
2022-12-24T10:19:19.548Z,77135.16
2022-12-24T10:22:24.821Z,77139.13
2022-12-24T10:25:14.706Z,77153.06
2022-12-24T10:27:41.095Z,77135.16
2022-12-24T10:30:20.108Z,77149.06
2022-12-24T10:32:51.848Z,77155.03
2022-12-24T10:35:27.579Z,77139.13
2022-12-24T10:37:54.075Z,77163.00
2022-12-24T10:40:30.496Z,77157.03
2022-12-24T10:42:56.912Z,77161.00
2022-12-24T10:45:27.257Z,77161.00
2022-12-24T10:47:59.809Z,77149.06
2022-12-24T10:50:33.840Z,77178.88
2022-12-24T10:53:19.946Z,77176.91
2022-12-24T10:55:48.499Z,77172.94
2022-12-24T10:58:21.090Z,77174.91
2022-12-24T11:00:52.650Z,77164.97
2022-12-24T11:03:18.968Z,77176.91
2022-12-24T11:05:45.490Z,77178.88
2022-12-24T11:08:17.741Z,77192.81
2022-12-24T11:11:05.986Z,77192.81
2022-12-24T11:13:44.052Z,77206.72
2022-12-24T11:16:36.180Z,77206.72
2022-12-24T11:19:05.410Z,77192.81
2022-12-24T11:21:39.347Z,77200.75
2022-12-24T11:24:11.965Z,77180.88
2022-12-24T11:26:39.983Z,77184.84
2022-12-24T11:29:27.389Z,77190.81
2022-12-24T11:32:16.534Z,77178.88
2022-12-24T11:34:43.572Z,77172.94
2022-12-24T11:37:16.273Z,77159.00
2022-12-24T11:39:52.977Z,77131.19
2022-12-24T11:42:40.698Z,77123.25
2022-12-24T11:45:21.068Z,77115.28
2022-12-24T11:47:47.453Z,77113.31
2022-12-24T11:50:30.171Z,77097.41
2022-12-24T11:53:07.906Z,77077.53
2022-12-24T11:55:56.667Z,77071.56
2022-12-24T11:58:35.960Z,77079.50
2022-12-24T12:01:15.737Z,77073.56
2022-12-24T12:03:47.105Z,77073.56
2022-12-24T12:06:31.408Z,77091.44
2022-12-24T12:09:03.025Z,77095.41
2022-12-24T12:11:30.993Z,77081.50
2022-12-24T12:14:01.102Z,77071.56
2022-12-24T12:17:00.868Z,77071.56
2022-12-24T12:19:32.656Z,77065.59
2022-12-24T12:22:03.261Z,77069.56
2022-12-24T12:24:37.173Z,77081.50
2022-12-24T12:27:23.962Z,77101.38
2022-12-24T12:29:57.955Z,77103.38
2022-12-24T12:32:48.983Z,77093.44
2022-12-24T12:35:43.269Z,77085.47
2022-12-24T12:38:13.833Z,77061.63
2022-12-24T12:41:01.360Z,77081.50
2022-12-24T12:43:39.993Z,77087.47
2022-12-24T12:46:46.817Z,77101.38
2022-12-24T12:49:39.597Z,77113.31
2022-12-24T12:52:34.180Z,77111.31
2022-12-24T12:55:28.031Z,77115.28
2022-12-24T12:57:59.755Z,77103.38
2022-12-24T13:00:30.329Z,77095.41
2022-12-24T13:03:27.799Z,77095.41
2022-12-24T13:06:31.976Z,77095.41
2022-12-24T13:09:20.651Z,77099.38
2022-12-24T13:11:59.596Z,77099.38
2022-12-24T13:14:50.909Z,77101.38
2022-12-24T13:17:32.451Z,77099.38
2022-12-24T13:20:14.691Z,77113.31
2022-12-24T13:23:07.715Z,77105.34
2022-12-24T13:25:41.390Z,77125.22
2022-12-24T13:28:22.964Z,77129.19
2022-12-24T13:30:53.457Z,77133.19
2022-12-24T13:33:38.190Z,77127.22
2022-12-24T13:36:07.780Z,77135.16
2022-12-24T13:38:42.823Z,77147.09
2022-12-24T13:41:39.575Z,77155.03
2022-12-24T13:44:07.384Z,77159.00
2022-12-24T13:46:45.887Z,77164.97
2022-12-24T13:49:19.019Z,77168.94
2022-12-24T13:51:46.413Z,77176.91
2022-12-24T13:54:14.832Z,77164.97
2022-12-24T13:56:42.150Z,77170.94
2022-12-24T13:59:30.602Z,77178.88
2022-12-24T14:02:01.312Z,77198.75
2022-12-24T14:04:32.185Z,77188.81
2022-12-24T14:07:02.503Z,77204.72
2022-12-24T14:09:30.486Z,77220.63
2022-12-24T14:11:59.868Z,77220.63
2022-12-24T14:14:33.687Z,77228.56
2022-12-24T14:17:03.497Z,77238.50
2022-12-24T14:19:41.046Z,77262.38
2022-12-24T14:22:22.724Z,77286.22
2022-12-24T14:24:59.365Z,77294.16
2022-12-24T14:27:25.813Z,77300.13
2022-12-24T14:30:18.687Z,77316.03
2022-12-24T14:32:45.579Z,77333.91
2022-12-24T14:35:22.053Z,77347.84
2022-12-24T14:37:52.472Z,77355.78
2022-12-24T14:40:25.511Z,77373.66
2022-12-24T14:43:17.805Z,77375.66
2022-12-24T14:45:53.095Z,77397.53
2022-12-24T14:48:29.556Z,77383.59
2022-12-24T14:51:18.757Z,77397.53
2022-12-24T14:54:03.795Z,77399.50
2022-12-24T14:56:30.251Z,77397.53
2022-12-24T14:58:59.050Z,77397.53
2022-12-24T15:01:31.659Z,77401.50
2022-12-24T15:04:11.249Z,77419.38
2022-12-24T15:06:50.447Z,77437.28
2022-12-24T15:09:20.404Z,77461.13
2022-12-24T15:11:49.713Z,77465.09
2022-12-24T15:14:17.755Z,77488.97
2022-12-24T15:16:54.499Z,77504.84
2022-12-24T15:19:33.280Z,77502.88
2022-12-24T15:22:01.312Z,77524.72
2022-12-24T15:24:33.733Z,77522.75
2022-12-24T15:27:02.998Z,77526.72
2022-12-24T15:29:32.286Z,77542.63
2022-12-24T15:32:01.228Z,77552.56
2022-12-24T15:34:37.842Z,77556.53
2022-12-24T15:37:23.641Z,77562.50
2022-12-24T15:40:19.645Z,77562.50
2022-12-24T15:42:46.286Z,77556.53
2022-12-24T15:45:23.159Z,77554.56
2022-12-24T15:47:57.521Z,77554.56
2022-12-24T15:50:31.222Z,77550.56
2022-12-24T15:53:20.326Z,77566.47
2022-12-24T15:56:02.531Z,77568.47
2022-12-24T15:58:32.056Z,77580.41
2022-12-24T16:01:09.144Z,77582.38
2022-12-24T16:03:42.045Z,77592.31
2022-12-24T16:06:11.643Z,77590.34
2022-12-24T16:08:40.050Z,77598.28
2022-12-24T16:11:09.631Z,77608.22
2022-12-24T16:13:39.992Z,77612.19
2022-12-24T16:16:11.383Z,77616.16
2022-12-24T16:18:40.274Z,77620.16
2022-12-24T16:21:07.685Z,77642.00
2022-12-24T16:23:45.640Z,77647.97
2022-12-24T16:26:12.055Z,77655.94
2022-12-24T16:28:38.476Z,77677.78
2022-12-24T16:31:05.097Z,77659.91
2022-12-24T16:33:31.630Z,77677.78
2022-12-24T16:35:58.404Z,77671.81
2022-12-24T16:38:24.898Z,77687.72
2022-12-24T16:40:52.113Z,77695.69
2022-12-24T16:43:37.293Z,77687.72
2022-12-24T16:46:06.938Z,77693.69
2022-12-24T16:48:37.592Z,77693.69
2022-12-24T16:51:04.096Z,77699.66
2022-12-24T16:53:30.571Z,77703.63
2022-12-24T16:55:56.983Z,77709.59
2022-12-24T16:58:23.449Z,77721.53
2022-12-24T17:00:50.000Z,77729.47
2022-12-24T17:03:16.658Z,77737.44
2022-12-24T17:05:44.524Z,77737.44
2022-12-24T17:08:11.683Z,77731.47
2022-12-24T17:10:38.129Z,77747.38
2022-12-24T17:13:05.306Z,77747.38
2022-12-24T17:15:31.900Z,77755.31
2022-12-24T17:17:58.385Z,77761.28
2022-12-24T17:20:24.926Z,77751.34
2022-12-24T17:22:51.685Z,77751.34
2022-12-24T17:25:18.311Z,77713.56
2022-12-24T17:27:44.838Z,77729.47
2022-12-24T17:30:11.529Z,77739.41
2022-12-24T17:32:39.575Z,77749.34
2022-12-24T17:35:06.980Z,77749.34
2022-12-24T17:37:33.392Z,77751.34
2022-12-24T17:39:59.868Z,77743.41
2022-12-24T17:42:26.218Z,77745.38
2022-12-24T17:44:52.611Z,77739.41
2022-12-24T17:47:18.970Z,77729.47
2022-12-24T17:49:45.363Z,77717.56
2022-12-24T17:52:12.119Z,77721.53
2022-12-24T17:54:38.590Z,77721.53
2022-12-24T17:57:05.140Z,77713.56
2022-12-24T17:59:31.935Z,77721.53
2022-12-24T18:01:58.569Z,77705.63
2022-12-24T18:04:25.111Z,77713.56
2022-12-24T18:06:56.256Z,77717.56
2022-12-24T18:09:28.067Z,77711.59
2022-12-24T18:11:54.620Z,77687.72
2022-12-24T18:14:21.031Z,77679.78
2022-12-24T18:16:48.340Z,77691.72
2022-12-24T18:19:14.777Z,77687.72
2022-12-24T18:21:41.264Z,77675.81
2022-12-24T18:24:08.978Z,77673.81
2022-12-24T18:26:35.615Z,77661.88
2022-12-24T18:29:04.480Z,77669.84
2022-12-24T18:31:33.386Z,77681.78
2022-12-24T18:34:01.895Z,77677.78
2022-12-24T18:36:28.358Z,77671.81
2022-12-24T18:38:54.816Z,77683.75
2022-12-24T18:41:27.296Z,77691.72
2022-12-24T18:43:54.435Z,77675.81
2022-12-24T18:46:23.745Z,77677.78
2022-12-24T18:48:51.303Z,77679.78
2022-12-24T18:51:19.792Z,77675.81
2022-12-24T18:53:46.150Z,77655.94
2022-12-24T18:56:14.235Z,77661.88
2022-12-24T18:58:42.205Z,77642.00
2022-12-24T19:01:13.115Z,77644.00
2022-12-24T19:03:39.617Z,77657.91
2022-12-24T19:06:06.517Z,77638.03
2022-12-24T19:11:19.408Z,77616.16
2022-12-24T19:13:49.730Z,77624.13
2022-12-24T19:16:16.998Z,77632.06
2022-12-24T19:18:43.459Z,77638.03
2022-12-24T19:21:12.236Z,77655.94
2022-12-24T19:23:38.695Z,77671.81
2022-12-24T19:26:05.776Z,77669.84
2022-12-24T19:28:32.878Z,77679.78
2022-12-24T19:31:07.979Z,77687.72
2022-12-24T19:33:43.518Z,77699.66
2022-12-24T19:36:13.469Z,77713.56
2022-12-24T19:38:40.312Z,77695.69
2022-12-24T19:41:07.711Z,77723.50
2022-12-24T19:43:37.570Z,77747.38
2022-12-24T19:46:04.244Z,77747.38
2022-12-24T19:48:30.961Z,77763.28
2022-12-24T19:51:02.101Z,77769.22
2022-12-24T19:53:28.824Z,77783.16
2022-12-24T19:55:55.227Z,77805.00
2022-12-24T19:58:21.670Z,77818.94
2022-12-24T20:00:48.716Z,77826.88
2022-12-24T20:03:15.208Z,77820.91
2022-12-24T20:05:42.454Z,77814.97
2022-12-24T20:08:09.113Z,77805.00
2022-12-24T20:10:43.598Z,77799.06
2022-12-24T20:13:10.940Z,77799.06
2022-12-24T20:15:44.735Z,77789.13
2022-12-24T20:18:13.087Z,77789.13
2022-12-24T20:20:40.409Z,77793.09
2022-12-24T20:23:07.960Z,77803.03
2022-12-24T20:25:36.110Z,77799.06
2022-12-24T20:28:03.446Z,77820.91
2022-12-24T20:30:29.869Z,77814.97
2022-12-24T20:32:57.381Z,77805.00
2022-12-24T20:35:24.611Z,77820.91
2022-12-24T20:37:51.070Z,77799.06
2022-12-24T20:40:17.599Z,77775.19
2022-12-24T20:42:44.144Z,77775.19
2022-12-24T20:45:10.719Z,77787.13
2022-12-24T20:47:37.088Z,77751.34
2022-12-24T20:50:03.785Z,77753.34
2022-12-24T20:52:30.208Z,77759.28
2022-12-24T20:54:56.590Z,77753.34
2022-12-24T20:57:26.761Z,77769.22
2022-12-24T20:59:55.223Z,77753.34
2022-12-24T21:02:21.738Z,77761.28
2022-12-24T21:04:48.437Z,77759.28
2022-12-24T21:07:14.913Z,77763.28
2022-12-24T21:09:41.706Z,77745.38
2022-12-24T21:12:29.774Z,77751.34
2022-12-24T21:14:56.490Z,77755.31
2022-12-24T21:17:23.131Z,77743.41
2022-12-24T21:19:49.688Z,77743.41
2022-12-24T21:22:16.115Z,77761.28
2022-12-24T21:24:42.563Z,77751.34
2022-12-24T21:27:08.966Z,77755.31
2022-12-24T21:29:35.331Z,77747.38
2022-12-24T21:32:01.701Z,77751.34
2022-12-24T21:34:28.462Z,77759.28
2022-12-24T21:36:54.872Z,77759.28
2022-12-24T21:39:21.299Z,77747.38
2022-12-24T21:41:47.733Z,77751.34
2022-12-24T21:44:14.306Z,77739.41
2022-12-24T21:46:40.710Z,77749.34
2022-12-24T21:49:28.298Z,77749.34
2022-12-24T21:51:54.688Z,77759.28
2022-12-24T21:54:24.105Z,77755.31
2022-12-24T21:57:10.782Z,77759.28
2022-12-24T21:59:37.155Z,77779.16
2022-12-24T22:02:03.853Z,77767.25
2022-12-24T22:04:31.718Z,77773.22
2022-12-24T22:07:16.647Z,77781.16
2022-12-24T22:10:01.602Z,77769.22
2022-12-24T22:12:32.447Z,77777.19
2022-12-24T22:14:59.158Z,77785.13
2022-12-24T22:17:26.806Z,77781.16
2022-12-24T22:19:55.541Z,77791.09
2022-12-24T22:22:22.980Z,77777.19
2022-12-24T22:24:49.508Z,77785.13
2022-12-24T22:27:16.088Z,77775.19
2022-12-24T22:29:42.451Z,77785.13
2022-12-24T22:32:08.811Z,77769.22
2022-12-24T22:34:36.598Z,77779.16
2022-12-24T22:37:03.012Z,77783.16
2022-12-24T22:39:29.372Z,77793.09
2022-12-24T22:41:57.925Z,77795.06
2022-12-24T22:44:24.785Z,77795.06
2022-12-24T22:46:51.171Z,77799.06
2022-12-24T22:49:17.627Z,77816.94
2022-12-24T22:51:44.030Z,77810.97
2022-12-24T22:54:10.466Z,77826.88
2022-12-24T22:56:40.944Z,77826.88
2022-12-24T22:59:07.968Z,77822.91
2022-12-24T23:01:36.919Z,77824.91
2022-12-24T23:04:04.748Z,77826.88
2022-12-24T23:06:32.995Z,77816.94
2022-12-24T23:08:59.782Z,77830.84
2022-12-24T23:11:26.247Z,77818.94
2022-12-24T23:14:11.274Z,77832.84
2022-12-24T23:16:37.654Z,77836.81
2022-12-24T23:19:05.639Z,77832.84
2022-12-24T23:21:32.869Z,77846.75
2022-12-24T23:24:01.135Z,77842.78
2022-12-24T23:26:29.007Z,77850.75
2022-12-24T23:28:56.583Z,77868.63
2022-12-24T23:31:24.318Z,77864.66
2022-12-24T23:33:50.816Z,77890.50
2022-12-24T23:36:17.719Z,77904.41
2022-12-24T23:38:44.096Z,77924.28
2022-12-24T23:41:10.973Z,77932.25
2022-12-24T23:43:38.184Z,77932.25
2022-12-24T23:46:04.953Z,77960.06
2022-12-24T23:48:31.358Z,77942.19
2022-12-24T23:51:16.289Z,77956.09
2022-12-24T23:53:43.056Z,77964.06
2022-12-24T23:56:11.494Z,77975.97
2022-12-24T23:58:39.403Z,77991.88
